createdAt,value
2023-04-15T00:00:29.963Z,99602.34
2023-04-15T00:03:15.849Z,99605.78
2023-04-15T00:05:44.197Z,99601.53
2023-04-15T00:08:13.879Z,99595.91
2023-04-15T00:10:44.142Z,99596.13
2023-04-15T00:13:12.514Z,99593.72
2023-04-15T00:15:40.485Z,99586.56
2023-04-15T00:18:09.068Z,99591.06
2023-04-15T00:20:38.334Z,99595.06
2023-04-15T00:23:06.557Z,99597.69
2023-04-15T00:25:35.871Z,99590.28
2023-04-15T00:28:04.200Z,99584.47
2023-04-15T00:30:32.372Z,99578.66
2023-04-15T00:33:02.218Z,99578.44
2023-04-15T00:35:32.545Z,99583.44
2023-04-15T00:38:00.869Z,99577.09
2023-04-15T00:40:28.927Z,99571.84
2023-04-15T00:42:58.510Z,99577.13
2023-04-15T00:45:27.383Z,99575.50
2023-04-15T00:47:56.892Z,99581.06
2023-04-15T00:50:25.194Z,99589.50
2023-04-15T00:52:53.437Z,99588.13
2023-04-15T00:55:21.696Z,99594.09
2023-04-15T00:57:49.996Z,99591.69
2023-04-15T01:00:20.155Z,99594.28
2023-04-15T01:02:48.613Z,99587.91
2023-04-15T01:05:19.404Z,99590.50
2023-04-15T01:07:48.152Z,99586.81
2023-04-15T01:10:16.282Z,99589.94
2023-04-15T01:12:44.933Z,99595.44
2023-04-15T01:15:13.064Z,99587.25
2023-04-15T01:17:43.391Z,99590.44
2023-04-15T01:20:12.204Z,99584.66
2023-04-15T01:22:40.908Z,99583.50
2023-04-15T01:25:13.053Z,99580.16
2023-04-15T01:27:43.300Z,99580.72
2023-04-15T01:30:12.090Z,99583.41
2023-04-15T01:32:40.450Z,99582.13
2023-04-15T01:35:27.159Z,99582.41
2023-04-15T01:37:55.752Z,99577.13
2023-04-15T01:40:23.757Z,99583.56
2023-04-15T01:42:53.750Z,99581.00
2023-04-15T01:45:21.813Z,99586.81
2023-04-15T01:47:50.407Z,99590.38
2023-04-15T01:50:18.928Z,99589.97
2023-04-15T01:52:47.540Z,99592.75
2023-04-15T01:55:16.020Z,99592.75
2023-04-15T01:57:44.374Z,99593.31
2023-04-15T02:00:14.673Z,99596.88
2023-04-15T02:02:43.816Z,99597.09
2023-04-15T02:05:11.963Z,99596.09
2023-04-15T02:07:40.240Z,99587.56
2023-04-15T02:10:10.166Z,99593.09
2023-04-15T02:12:38.475Z,99591.09
2023-04-15T02:15:08.914Z,99593.38
2023-04-15T02:17:38.690Z,99594.09
2023-04-15T02:20:08.551Z,99595.66
2023-04-15T02:22:36.906Z,99595.00
2023-04-15T02:25:05.539Z,99595.06
2023-04-15T02:27:33.951Z,99594.06
2023-04-15T02:30:02.031Z,99588.31
2023-04-15T02:32:30.556Z,99585.22
2023-04-15T02:35:03.678Z,99590.16
2023-04-15T02:37:32.887Z,99586.19
2023-04-15T02:40:01.438Z,99588.94
2023-04-15T02:42:30.355Z,99588.63
2023-04-15T02:45:01.490Z,99585.69
2023-04-15T02:47:34.074Z,99595.69
2023-04-15T02:50:04.046Z,99586.63
2023-04-15T02:52:33.148Z,99585.84
2023-04-15T02:55:02.551Z,99591.31
2023-04-15T02:57:31.619Z,99586.97
2023-04-15T03:00:09.479Z,99585.81
2023-04-15T03:02:40.204Z,99593.56
2023-04-15T03:05:13.033Z,99596.16
2023-04-15T03:07:44.578Z,99595.84
2023-04-15T03:10:13.129Z,99594.72
2023-04-15T03:12:41.677Z,99604.50
2023-04-15T03:15:12.954Z,99603.38
2023-04-15T03:17:46.234Z,99601.88
2023-04-15T03:20:15.928Z,99601.84
2023-04-15T03:22:44.290Z,99599.16
2023-04-15T03:25:12.602Z,99596.81
2023-04-15T03:27:40.938Z,99597.28
2023-04-15T03:30:10.632Z,99599.09
2023-04-15T03:32:40.217Z,99603.00
2023-04-15T03:35:09.822Z,99593.38
2023-04-15T03:37:39.465Z,99598.72
2023-04-15T03:40:09.725Z,99596.59
2023-04-15T03:42:38.050Z,99596.63
2023-04-15T03:45:07.544Z,99597.78
2023-04-15T03:47:35.921Z,99602.31
2023-04-15T03:50:04.320Z,99597.09
2023-04-15T03:52:32.550Z,99594.16
2023-04-15T03:55:02.249Z,99598.47
2023-04-15T03:57:30.591Z,99595.13
2023-04-15T03:59:59.622Z,99597.09
2023-04-15T04:02:28.322Z,99599.16
2023-04-15T04:04:56.536Z,99600.22
2023-04-15T04:07:25.419Z,99601.72
2023-04-15T04:09:53.555Z,99597.59
2023-04-15T04:12:23.216Z,99597.09
2023-04-15T04:14:51.362Z,99591.91
2023-04-15T04:17:19.630Z,99603.13
2023-04-15T04:19:47.634Z,99596.09
2023-04-15T04:22:15.855Z,99595.03
2023-04-15T04:24:43.875Z,99593.94
2023-04-15T04:27:12.125Z,99594.41
2023-04-15T04:29:41.449Z,99592.81
2023-04-15T04:32:09.977Z,99591.81
2023-04-15T04:34:38.205Z,99602.69
2023-04-15T04:37:06.889Z,99606.22
2023-04-15T04:39:34.881Z,99603.97
2023-04-15T04:42:03.118Z,99610.84
2023-04-15T04:44:31.195Z,99609.88
2023-04-15T04:47:00.819Z,99611.00
2023-04-15T04:49:28.864Z,99617.25
2023-04-15T04:51:57.309Z,99616.75
2023-04-15T04:54:25.401Z,99620.56
2023-04-15T04:56:53.727Z,99616.75
2023-04-15T04:59:21.680Z,99622.34
2023-04-15T05:01:49.896Z,99623.94
2023-04-15T05:04:19.565Z,99626.16
2023-04-15T05:06:47.847Z,99630.31
2023-04-15T05:09:16.002Z,99636.19
2023-04-15T05:11:44.267Z,99637.16
2023-04-15T05:14:12.258Z,99643.56
2023-04-15T05:16:40.574Z,99644.09
2023-04-15T05:19:08.705Z,99641.00
2023-04-15T05:21:39.530Z,99649.00
2023-04-15T05:24:07.911Z,99641.31
2023-04-15T05:26:36.198Z,99637.50
2023-04-15T05:29:04.351Z,99642.94
2023-04-15T05:31:32.866Z,99647.38
2023-04-15T05:34:01.425Z,99646.34
2023-04-15T05:36:29.715Z,99645.56
2023-04-15T05:38:59.468Z,99652.88
2023-04-15T05:41:27.936Z,99652.22
2023-04-15T05:43:56.158Z,99658.38
2023-04-15T05:46:24.511Z,99652.41
2023-04-15T05:48:53.807Z,99651.66
2023-04-15T05:51:23.068Z,99653.47
2023-04-15T05:53:51.231Z,99654.63
2023-04-15T05:56:21.307Z,99655.69
2023-04-15T05:58:50.129Z,99656.78
2023-04-15T06:01:19.253Z,99662.47
2023-04-15T06:03:47.478Z,99664.78
2023-04-15T06:06:16.414Z,99662.38
2023-04-15T06:08:44.394Z,99663.50
2023-04-15T06:11:12.685Z,99662.22
2023-04-15T06:13:42.070Z,99665.06
2023-04-15T06:16:10.334Z,99671.22
2023-04-15T06:18:38.372Z,99671.41
2023-04-15T06:21:07.010Z,99673.00
2023-04-15T06:23:36.177Z,99661.13
2023-04-15T06:26:04.684Z,99665.72
2023-04-15T06:28:32.740Z,99665.97
2023-04-15T06:31:02.463Z,99666.59
2023-04-15T06:33:30.580Z,99667.75
2023-04-15T06:35:58.768Z,99664.66
2023-04-15T06:38:26.773Z,99661.69
2023-04-15T06:40:54.982Z,99663.44
2023-04-15T06:43:23.026Z,99665.31
2023-04-15T06:45:51.628Z,99667.69
2023-04-15T06:48:21.044Z,99664.56
2023-04-15T06:50:50.093Z,99656.97
2023-04-15T06:53:18.032Z,99660.94
2023-04-15T06:55:46.296Z,99658.94
2023-04-15T06:58:14.351Z,99670.59
2023-04-15T07:00:42.954Z,99667.47
2023-04-15T07:03:12.752Z,99669.75
2023-04-15T07:05:42.485Z,99674.81
2023-04-15T07:08:10.528Z,99678.34
2023-04-15T07:10:39.112Z,99672.44
2023-04-15T07:13:08.681Z,99666.13
2023-04-15T07:15:36.952Z,99668.75
2023-04-15T07:18:04.976Z,99659.41
2023-04-15T07:20:33.292Z,99653.09
2023-04-15T07:23:02.725Z,99651.47
2023-04-15T07:25:30.975Z,99648.34
2023-04-15T07:27:58.997Z,99662.41
2023-04-15T07:30:27.200Z,99657.09
2023-04-15T07:32:55.340Z,99664.50
2023-04-15T07:35:23.658Z,99662.44
2023-04-15T07:37:52.111Z,99668.84
2023-04-15T07:40:22.342Z,99664.88
2023-04-15T07:42:50.425Z,99667.84
2023-04-15T07:45:18.762Z,99669.69
2023-04-15T07:47:46.857Z,99670.16
2023-04-15T07:50:16.113Z,99675.53
2023-04-15T07:52:44.202Z,99679.53
2023-04-15T07:55:12.515Z,99676.88
2023-04-15T07:57:41.896Z,99671.09
2023-04-15T08:00:11.350Z,99667.38
2023-04-15T08:02:42.637Z,99675.34
2023-04-15T08:05:11.647Z,99674.28
2023-04-15T08:07:40.640Z,99676.13
2023-04-15T08:10:09.532Z,99673.19
2023-04-15T08:12:37.762Z,99672.13
2023-04-15T08:15:09.130Z,99671.56
2023-04-15T08:17:37.341Z,99673.69
2023-04-15T08:20:06.749Z,99677.38
2023-04-15T08:22:35.489Z,99677.41
2023-04-15T08:25:03.834Z,99674.75
2023-04-15T08:27:32.017Z,99687.47
2023-04-15T08:30:02.141Z,99683.22
2023-04-15T08:32:33.036Z,99678.13
2023-04-15T08:35:01.726Z,99683.13
2023-04-15T08:37:29.707Z,99681.56
2023-04-15T08:39:57.906Z,99674.09
2023-04-15T08:42:32.315Z,99681.56
2023-04-15T08:45:01.569Z,99688.44
2023-04-15T08:47:31.974Z,99685.75
2023-04-15T08:50:05.046Z,99686.28
2023-04-15T08:52:33.182Z,99682.50
2023-04-15T08:55:01.689Z,99683.06
2023-04-15T08:57:30.499Z,99684.03
2023-04-15T08:59:58.779Z,99678.84
2023-04-15T09:02:28.074Z,99685.84
2023-04-15T09:04:56.721Z,99687.44
2023-04-15T09:07:26.126Z,99687.13
2023-04-15T09:09:54.343Z,99684.69
2023-04-15T09:12:22.819Z,99677.16
2023-04-15T09:14:51.136Z,99689.81
2023-04-15T09:17:20.514Z,99687.44
2023-04-15T09:19:48.940Z,99687.53
2023-04-15T09:22:17.254Z,99695.56
2023-04-15T09:24:47.472Z,99693.66
2023-04-15T09:27:17.606Z,99692.19
2023-04-15T09:29:45.934Z,99695.94
2023-04-15T09:32:15.103Z,99690.84
2023-04-15T09:34:43.603Z,99693.13
2023-04-15T09:37:20.690Z,99695.16
2023-04-15T09:40:01.018Z,99696.97
2023-04-15T09:42:29.150Z,99700.38
2023-04-15T09:44:57.464Z,99701.38
2023-04-15T09:47:29.546Z,99709.53
2023-04-15T09:49:58.411Z,99712.34
2023-04-15T09:52:27.255Z,99712.56
2023-04-15T09:54:56.979Z,99708.81
2023-04-15T09:57:26.677Z,99708.47
2023-04-15T09:59:54.911Z,99706.84
2023-04-15T10:02:23.303Z,99712.41
2023-04-15T10:04:53.674Z,99707.69
2023-04-15T10:07:22.622Z,99713.47
2023-04-15T10:09:50.981Z,99709.00
2023-04-15T10:12:19.128Z,99713.38
2023-04-15T10:14:53.150Z,99711.16
2023-04-15T10:17:23.622Z,99717.50
2023-04-15T10:19:55.006Z,99722.25
2023-04-15T10:22:23.864Z,99722.16
2023-04-15T10:24:52.505Z,99724.59
2023-04-15T10:27:22.055Z,99718.19
2023-04-15T10:29:52.415Z,99724.28
2023-04-15T10:32:26.431Z,99722.34
2023-04-15T10:34:55.653Z,99730.09
2023-04-15T10:37:33.953Z,99732.56
2023-04-15T10:40:02.742Z,99728.44
2023-04-15T10:42:35.612Z,99731.19
2023-04-15T10:45:17.409Z,99728.03
2023-04-15T10:47:45.520Z,99737.63
2023-04-15T10:50:13.917Z,99735.81
2023-04-15T10:52:42.643Z,99749.47
2023-04-15T10:55:15.751Z,99746.81
2023-04-15T10:57:44.847Z,99748.59
2023-04-15T11:00:16.734Z,99752.34
2023-04-15T11:02:47.578Z,99752.53
2023-04-15T11:05:16.714Z,99756.28
2023-04-15T11:07:53.588Z,99758.78
2023-04-15T11:10:52.953Z,99752.81
2023-04-15T11:13:23.491Z,99765.28
2023-04-15T11:15:58.283Z,99760.13
2023-04-15T11:18:28.361Z,99764.59
2023-04-15T11:20:59.201Z,99761.72
2023-04-15T11:23:32.434Z,99771.69
2023-04-15T11:26:01.662Z,99765.78
2023-04-15T11:28:30.866Z,99768.53
2023-04-15T11:31:07.298Z,99776.16
2023-04-15T11:33:35.454Z,99773.78
2023-04-15T11:36:04.474Z,99779.84
2023-04-15T11:38:32.528Z,99783.72
2023-04-15T11:41:03.286Z,99781.56
2023-04-15T11:43:35.366Z,99781.13
2023-04-15T11:46:05.447Z,99790.38
2023-04-15T11:48:34.825Z,99792.25
2023-04-15T11:51:04.082Z,99788.47
2023-04-15T11:53:40.842Z,99791.03
2023-04-15T11:56:09.896Z,99797.94
2023-04-15T11:58:39.161Z,99798.31
2023-04-15T12:01:08.801Z,99795.47
2023-04-15T12:03:41.291Z,99799.50
2023-04-15T12:06:12.934Z,99799.31
2023-04-15T12:09:05.030Z,99804.44
2023-04-15T12:11:36.186Z,99803.28
2023-04-15T12:14:07.318Z,99810.53
2023-04-15T12:16:48.891Z,99806.75
2023-04-15T12:19:20.288Z,99814.69
2023-04-15T12:21:49.504Z,99811.50
2023-04-15T12:24:21.921Z,99813.88
2023-04-15T12:26:51.706Z,99813.09
2023-04-15T12:29:20.405Z,99824.13
2023-04-15T12:31:51.706Z,99827.88
2023-04-15T12:34:27.694Z,99816.81
2023-04-15T12:36:55.970Z,99825.63
2023-04-15T12:39:25.167Z,99822.44
2023-04-15T12:41:53.464Z,99823.00
2023-04-15T12:44:24.144Z,99815.88
2023-04-15T12:46:54.387Z,99815.22
2023-04-15T12:49:23.110Z,99822.47
2023-04-15T12:51:51.773Z,99830.47
2023-04-15T12:54:20.447Z,99833.03
2023-04-15T12:56:49.742Z,99833.69
2023-04-15T12:59:18.749Z,99835.31
2023-04-15T13:01:47.352Z,99846.09
2023-04-15T13:04:17.621Z,99846.53
2023-04-15T13:06:45.970Z,99840.75
2023-04-15T13:09:14.319Z,99848.09
2023-04-15T13:11:42.565Z,99847.13
2023-04-15T13:14:12.963Z,99840.75
2023-04-15T13:16:41.329Z,99844.63
2023-04-15T13:19:09.716Z,99844.06
2023-04-15T13:21:39.166Z,99845.34
2023-04-15T13:24:08.135Z,99848.00
2023-04-15T13:26:36.475Z,99854.53
2023-04-15T13:29:06.783Z,99849.31
2023-04-15T13:31:34.876Z,99853.50
2023-04-15T13:34:03.477Z,99868.59
2023-04-15T13:36:31.853Z,99869.28
2023-04-15T13:39:01.604Z,99862.78
2023-04-15T13:41:30.039Z,99877.28
2023-04-15T13:43:58.433Z,99874.03
2023-04-15T13:46:26.803Z,99877.44
2023-04-15T13:48:55.049Z,99889.91
2023-04-15T13:51:23.007Z,99880.25
2023-04-15T13:53:51.307Z,99886.59
2023-04-15T13:56:21.487Z,99889.84
2023-04-15T13:58:49.792Z,99897.28
2023-04-15T14:01:17.871Z,99887.59
2023-04-15T14:03:46.317Z,99889.66
2023-04-15T14:06:14.436Z,99894.78
2023-04-15T14:08:42.729Z,99902.91
2023-04-15T14:11:11.079Z,99896.44
2023-04-15T14:13:40.730Z,99907.53
2023-04-15T14:16:08.976Z,99916.28
2023-04-15T14:18:38.417Z,99906.34
2023-04-15T14:21:07.222Z,99917.06
2023-04-15T14:23:35.585Z,99921.91
2023-04-15T14:26:03.611Z,99926.16
2023-04-15T14:28:32.673Z,99926.09
2023-04-15T14:31:02.210Z,99944.53
2023-04-15T14:33:30.490Z,99944.59
2023-04-15T14:35:58.532Z,99951.19
2023-04-15T14:38:26.760Z,99969.41
2023-04-15T14:40:54.738Z,99975.97
2023-04-15T14:43:23.122Z,99978.63
2023-04-15T14:45:51.861Z,99983.59
2023-04-15T14:48:21.438Z,99989.09
2023-04-15T14:50:49.464Z,99992.91
2023-04-15T14:53:17.760Z,100004.91
2023-04-15T14:55:45.975Z,100007.59
2023-04-15T14:58:14.258Z,100005.41
2023-04-15T15:00:44.366Z,100013.66
2023-04-15T15:03:13.561Z,100012.91
2023-04-15T15:05:44.103Z,100011.84
2023-04-15T15:08:13.186Z,100017.59
2023-04-15T15:10:49.764Z,100028.53
2023-04-15T15:13:19.304Z,100027.03
2023-04-15T15:15:49.249Z,100031.84
2023-04-15T15:18:18.812Z,100039.28
2023-04-15T15:20:49.342Z,100043.59
2023-04-15T15:23:17.658Z,100050.00
2023-04-15T15:25:47.152Z,100052.66
2023-04-15T15:28:15.528Z,100059.53
2023-04-15T15:30:43.512Z,100057.44
2023-04-15T15:33:11.814Z,100062.47
2023-04-15T15:35:40.896Z,100062.75
2023-04-15T15:38:12.353Z,100063.28
2023-04-15T15:40:40.574Z,100064.34
2023-04-15T15:43:08.848Z,100070.44
2023-04-15T15:45:36.982Z,100069.38
2023-04-15T15:48:06.232Z,100072.84
2023-04-15T15:50:34.865Z,100080.28
2023-04-15T15:53:03.114Z,100093.56
2023-04-15T15:55:32.450Z,100094.63
2023-04-15T15:58:00.679Z,100109.25
2023-04-15T16:00:28.749Z,100107.34
2023-04-15T16:05:29.013Z,100112.66
2023-04-15T16:07:57.260Z,100115.84
2023-04-15T16:10:25.280Z,100111.25
2023-04-15T16:12:55.374Z,100131.16
2023-04-15T16:15:23.707Z,100111.47
2023-04-15T16:17:52.170Z,100133.22
2023-04-15T16:20:20.221Z,100133.22
2023-04-15T16:22:48.626Z,100141.41
2023-04-15T16:25:16.590Z,100140.06
2023-04-15T16:27:58.934Z,100140.06
2023-04-15T16:30:30.742Z,100144.84
2023-04-15T16:32:59.131Z,100149.63
2023-04-15T16:35:27.117Z,100153.31
2023-04-15T16:37:55.444Z,100144.31
2023-04-15T16:40:23.456Z,100154.88
2023-04-15T16:42:51.776Z,100159.66
2023-04-15T16:45:19.913Z,100170.81
2023-04-15T16:47:49.679Z,100166.56
2023-04-15T16:50:18.016Z,100173.44
2023-04-15T16:52:46.259Z,100174.44
2023-04-15T16:55:14.295Z,100171.47
2023-04-15T16:58:02.402Z,100181.50
2023-04-15T17:00:30.984Z,100187.03
2023-04-15T17:03:01.271Z,100186.44
2023-04-15T17:05:30.419Z,100186.91
2023-04-15T17:07:58.675Z,100195.84
2023-04-15T17:10:26.690Z,100201.69
2023-04-15T17:12:56.920Z,100201.63
2023-04-15T17:15:25.387Z,100198.16
2023-04-15T17:18:05.549Z,100209.31
2023-04-15T17:20:36.116Z,100215.41
2023-04-15T17:23:04.859Z,100219.41
2023-04-15T17:25:32.902Z,100227.06
2023-04-15T17:28:02.282Z,100226.03
2023-04-15T17:30:31.529Z,100224.41
2023-04-15T17:33:55.889Z,100230.72
2023-04-15T17:36:29.638Z,100234.44
2023-04-15T17:39:17.998Z,100239.53
2023-04-15T17:42:05.948Z,100239.28
2023-04-15T17:44:54.148Z,100245.03
2023-04-15T17:47:42.458Z,100222.38
2023-04-15T17:50:32.026Z,100248.19
2023-04-15T17:53:19.910Z,100256.09
2023-04-15T17:56:08.132Z,100262.47
2023-04-15T17:58:56.087Z,100263.47
2023-04-15T18:01:45.383Z,100268.72
2023-04-15T18:04:33.683Z,100278.19
2023-04-15T18:07:23.360Z,100276.50
2023-04-15T18:10:11.552Z,100281.97
2023-04-15T18:12:59.840Z,100284.38
2023-04-15T18:15:48.563Z,100302.84
2023-04-15T18:18:36.892Z,100292.88
2023-04-15T18:21:05.453Z,100291.75
2023-04-15T18:23:35.151Z,100298.13
2023-04-15T18:26:03.366Z,100292.81
2023-04-15T18:28:31.795Z,100304.47
2023-04-15T18:30:59.803Z,100303.97
2023-04-15T18:33:28.085Z,100305.75
2023-04-15T18:35:57.298Z,100315.06
2023-04-15T18:38:25.681Z,100320.22
2023-04-15T18:40:55.199Z,100328.19
2023-04-15T18:43:23.548Z,100332.34
2023-04-15T18:45:52.362Z,100321.66
2023-04-15T18:48:20.779Z,100331.47
2023-04-15T18:50:49.096Z,100334.22
2023-04-15T18:53:17.281Z,100333.34
2023-04-15T18:55:45.338Z,100339.81
2023-04-15T18:58:14.976Z,100344.25
2023-04-15T19:00:43.869Z,100341.09
2023-04-15T19:03:12.341Z,100346.88
2023-04-15T19:05:40.777Z,100351.63
2023-04-15T19:08:09.138Z,100351.88
2023-04-15T19:10:37.294Z,100358.75
2023-04-15T19:13:05.645Z,100362.69
2023-04-15T19:15:35.078Z,100366.16
2023-04-15T19:18:05.273Z,100360.53
2023-04-15T19:20:37.135Z,100367.41
2023-04-15T19:23:06.956Z,100374.50
2023-04-15T19:25:35.089Z,100368.56
2023-04-15T19:28:03.384Z,100372.22
2023-04-15T19:30:33.158Z,100377.19
2023-04-15T19:33:03.819Z,100371.06
2023-04-15T19:35:31.877Z,100387.50
2023-04-15T19:38:00.328Z,100390.69
2023-04-15T19:40:28.407Z,100390.22
2023-04-15T19:42:56.773Z,100390.22
2023-04-15T19:45:24.800Z,100390.69
2023-04-15T19:47:52.911Z,100400.72
2023-04-15T19:50:26.232Z,100403.06
2023-04-15T19:52:54.551Z,100403.38
2023-04-15T19:55:23.461Z,100409.78
2023-04-15T19:57:51.589Z,100404.97
2023-04-15T20:00:19.970Z,100413.97
2023-04-15T20:02:48.457Z,100409.78
2023-04-15T20:05:17.158Z,100411.06
2023-04-15T20:07:49.052Z,100411.94
2023-04-15T20:10:17.851Z,100408.78
2023-04-15T20:12:51.019Z,100405.94
2023-04-15T20:15:22.743Z,100417.31
2023-04-15T20:17:51.311Z,100412.50
2023-04-15T20:20:20.839Z,100417.78
2023-04-15T20:22:50.701Z,100419.88
2023-04-15T20:25:18.914Z,100412.97
2023-04-15T20:27:47.176Z,100410.91
2023-04-15T20:30:15.717Z,100415.06
2023-04-15T20:32:44.189Z,100416.97
2023-04-15T20:35:12.495Z,100419.09
2023-04-15T20:37:40.649Z,100419.88
2023-04-15T20:40:12.442Z,100424.13
2023-04-15T20:42:42.941Z,100424.06
2023-04-15T20:45:11.795Z,100429.34
2023-04-15T20:47:40.171Z,100428.63
2023-04-15T20:50:10.005Z,100437.03
2023-04-15T20:52:37.999Z,100428.88
2023-04-15T20:55:08.045Z,100433.34
2023-04-15T20:57:37.668Z,100428.88
2023-04-15T21:00:09.268Z,100434.66
2023-04-15T21:02:37.665Z,100438.81
2023-04-15T21:05:06.984Z,100432.56
2023-04-15T21:07:35.204Z,100435.25
2023-04-15T21:10:04.120Z,100439.94
2023-04-15T21:12:32.859Z,100438.47
2023-04-15T21:15:02.887Z,100441.38
2023-04-15T21:17:30.906Z,100444.41
2023-04-15T21:19:59.198Z,100450.19
2023-04-15T21:22:27.418Z,100447.56
2023-04-15T21:24:55.709Z,100449.06
2023-04-15T21:27:25.598Z,100458.53
2023-04-15T21:29:54.028Z,100463.44
2023-04-15T21:32:23.443Z,100458.72
2023-04-15T21:34:51.918Z,100466.09
2023-04-15T21:37:19.960Z,100465.59
2023-04-15T21:39:48.179Z,100466.69
2023-04-15T21:42:16.482Z,100471.38
2023-04-15T21:44:44.778Z,100477.28
2023-04-15T21:47:12.857Z,100475.69
2023-04-15T21:49:42.551Z,100479.81
2023-04-15T21:52:11.049Z,100481.47
2023-04-15T21:54:39.363Z,100484.22
2023-04-15T21:57:07.399Z,100481.56
2023-04-15T21:59:35.671Z,100486.63
2023-04-15T22:02:03.915Z,100487.53
2023-04-15T22:04:32.275Z,100488.56
2023-04-15T22:07:02.262Z,100493.84
2023-04-15T22:09:30.843Z,100490.19
2023-04-15T22:11:59.575Z,100494.31
2023-04-15T22:14:28.315Z,100502.44
2023-04-15T22:16:56.718Z,100497.88
2023-04-15T22:19:25.834Z,100507.31
2023-04-15T22:21:53.935Z,100506.50
2023-04-15T22:24:34.352Z,100518.06
2023-04-15T22:27:08.178Z,100516.66
2023-04-15T22:29:36.553Z,100525.16
2023-04-15T22:32:04.567Z,100519.44
2023-04-15T22:34:32.848Z,100521.97
2023-04-15T22:37:01.024Z,100522.75
2023-04-15T22:39:30.678Z,100514.56
2023-04-15T22:41:58.648Z,100528.69
2023-04-15T22:44:26.925Z,100545.69
2023-04-15T22:46:55.946Z,100537.72
2023-04-15T22:49:24.152Z,100545.47
2023-04-15T22:51:52.293Z,100542.00
2023-04-15T22:54:20.704Z,100546.16
2023-04-15T22:56:50.100Z,100557.41
2023-04-15T22:59:18.371Z,100552.28
2023-04-15T23:01:46.363Z,100553.09
2023-04-15T23:04:25.868Z,100558.84
2023-04-15T23:06:55.752Z,100558.84
2023-04-15T23:09:24.263Z,100558.69
2023-04-15T23:11:53.767Z,100556.78
2023-04-15T23:14:21.952Z,100554.84
2023-04-15T23:16:49.978Z,100564.53
2023-04-15T23:19:18.231Z,100559.00
2023-04-15T23:21:46.399Z,100567.94
2023-04-15T23:24:14.688Z,100570.56
2023-04-15T23:26:42.737Z,100568.97
2023-04-15T23:29:12.392Z,100576.03
2023-04-15T23:31:41.461Z,100569.13
2023-04-15T23:34:09.901Z,100570.72
2023-04-15T23:36:38.091Z,100576.50
2023-04-15T23:39:06.320Z,100571.22
2023-04-15T23:41:34.320Z,100578.09
2023-04-15T23:44:02.905Z,100576.63
2023-04-15T23:46:32.328Z,100581.13
2023-04-15T23:49:00.674Z,100575.19
2023-04-15T23:51:28.866Z,100580.94
2023-04-15T23:53:57.082Z,100573.22
2023-04-15T23:56:25.090Z,100577.75
2023-04-15T23:58:53.311Z,100567.59
